Terminal Aerodrome Forecast
Issued by NWS

Home | Current Version | Previous Version | Text Only | Print | Product List | Glossary On
Versions: 1 2 3 4 5 6 7 8 9 10 11 12 13
178
FTUS44 KBMX 141140
TAFMGM
TAF
KMGM 141140Z 1412/1512 20004KT P6SM BKN250
     FM141500 25006KT P6SM BKN250
     FM150700 30003KT P6SM BKN250=

USA.gov is the U.S. government's official web portal to all federal, state and local government web resources and services.